Main page
METAR-TAF:

METAR-TAF

Airports :

Valladolid Airport

Valladolid, Spain

latitude: 41-43N, longitude: 004-51W, elevation: 849 m

Current weather observation

The report was made 30 minutes ago, at 17:00 UTC
Wind 11 kt from the West/Southwest, varying between Southwest and West/Northwest
Temperature 28°C
Humidity 28%
Pressure 1019 hPa
Visibility 10 km or more
Few clouds at a height of 4800 ft

METAR: LEVD 201700Z 25011KT 230V290 9999 FEW048 28/08 Q1019

Time: 19:30 (17:30 UTC)

Forecast

The report was made 6 hours and 30 minutes ago, at 11:00 UTC
Forecast valid from 20 at 12 UTC to 21 at 12 UTC
Wind 5 kt from variable directions
Visibility 10 km or more
no clouds below 1500 m and no cumulonimbus
Temporary
from 20 at 12 UTC to 20 at 17 UTC
Wind 10 kt from the West/Southwest
Probability 40% :
Temporary
from 20 at 12 UTC to 20 at 17 UTC
Few clouds at a height of 4000 ft, Towering cumulus.

TAF: LEVD 201100Z 2012/2112 VRB05KT CAVOK TX30/2015Z TN12/2106Z TEMPO 2012/2017 25010KT PROB40 TEMPO 2012/2017 FEW040TCU

Weather observations and forecasts of more than 4000 airports (METAR and TAF reports).

The available stations are represented by yellow and red dots on the map.

Hover mouse over dot to see the name of the station.

Then click to see weather observations and forecasts.

To change the map : click on the green buttons with a black cross to zoom in, on the green button with a dash to zoom out, or on the green arrows for adjacent maps.


METAR-TAF: